sensor_id;sensor_type;location;lat;lon;timestamp;P1;durP1;ratioP1;P2;durP2;ratioP2
50585;SDS011;36542;51.700;8.846;2023-02-28T00:00:45;2.43;;;2.10;;
50585;SDS011;36542;51.700;8.846;2023-02-28T00:03:10;3.13;;;2.20;;
50585;SDS011;36542;51.700;8.846;2023-02-28T00:05:36;3.30;;;2.83;;
50585;SDS011;36542;51.700;8.846;2023-02-28T00:08:01;10.10;;;7.63;;
50585;SDS011;36542;51.700;8.846;2023-02-28T00:10:28;5.47;;;3.87;;
50585;SDS011;36542;51.700;8.846;2023-02-28T00:12:55;4.77;;;2.97;;
50585;SDS011;36542;51.700;8.846;2023-02-28T00:15:24;10.73;;;4.67;;
50585;SDS011;36542;51.700;8.846;2023-02-28T00:17:50;9.57;;;5.73;;
50585;SDS011;36542;51.700;8.846;2023-02-28T00:20:16;13.30;;;9.70;;
50585;SDS011;36542;51.700;8.846;2023-02-28T00:22:43;3.50;;;3.00;;
50585;SDS011;36542;51.700;8.846;2023-02-28T00:25:14;2.70;;;2.50;;
50585;SDS011;36542;51.700;8.846;2023-02-28T00:27:43;3.17;;;2.17;;
50585;SDS011;36542;51.700;8.846;2023-02-28T00:30:13;1.73;;;1.63;;
50585;SDS011;36542;51.700;8.846;2023-02-28T00:32:40;3.27;;;2.17;;
50585;SDS011;36542;51.700;8.846;2023-02-28T00:35:07;2.80;;;1.77;;
50585;SDS011;36542;51.700;8.846;2023-02-28T00:37:33;2.83;;;1.90;;
50585;SDS011;36542;51.700;8.846;2023-02-28T00:39:59;2.40;;;1.80;;
50585;SDS011;36542;51.700;8.846;2023-02-28T00:42:25;2.90;;;1.70;;
50585;SDS011;36542;51.700;8.846;2023-02-28T00:44:50;2.57;;;1.53;;
50585;SDS011;36542;51.700;8.846;2023-02-28T00:47:16;1.90;;;1.30;;
50585;SDS011;36542;51.700;8.846;2023-02-28T00:49:41;3.20;;;1.60;;
50585;SDS011;36542;51.700;8.846;2023-02-28T00:52:07;2.80;;;1.60;;
50585;SDS011;36542;51.700;8.846;2023-02-28T00:54:33;3.83;;;1.90;;
50585;SDS011;36542;51.700;8.846;2023-02-28T00:56:58;4.60;;;2.10;;
50585;SDS011;36542;51.700;8.846;2023-02-28T00:59:24;2.17;;;1.83;;
50585;SDS011;36542;51.700;8.846;2023-02-28T01:01:50;3.13;;;2.17;;
50585;SDS011;36542;51.700;8.846;2023-02-28T01:04:16;4.80;;;2.10;;
50585;SDS011;36542;51.700;8.846;2023-02-28T01:06:41;2.47;;;1.90;;
50585;SDS011;36542;51.700;8.846;2023-02-28T01:09:07;2.50;;;1.90;;
50585;SDS011;36542;51.700;8.846;2023-02-28T01:11:33;2.70;;;1.63;;
50585;SDS011;36542;51.700;8.846;2023-02-28T01:13:59;1.80;;;1.70;;
50585;SDS011;36542;51.700;8.846;2023-02-28T01:16:26;3.00;;;1.80;;
50585;SDS011;36542;51.700;8.846;2023-02-28T01:18:51;2.30;;;2.10;;
50585;SDS011;36542;51.700;8.846;2023-02-28T01:21:18;3.40;;;2.30;;
50585;SDS011;36542;51.700;8.846;2023-02-28T01:23:45;2.60;;;1.73;;
50585;SDS011;36542;51.700;8.846;2023-02-28T01:26:12;2.13;;;1.90;;
50585;SDS011;36542;51.700;8.846;2023-02-28T01:28:43;2.73;;;1.93;;
50585;SDS011;36542;51.700;8.846;2023-02-28T01:31:08;4.70;;;2.10;;
50585;SDS011;36542;51.700;8.846;2023-02-28T01:33:34;2.07;;;1.63;;
50585;SDS011;36542;51.700;8.846;2023-02-28T01:36:11;2.37;;;1.60;;
50585;SDS011;36542;51.700;8.846;2023-02-28T01:38:38;2.27;;;1.83;;
50585;SDS011;36542;51.700;8.846;2023-02-28T01:41:05;2.37;;;1.73;;
50585;SDS011;36542;51.700;8.846;2023-02-28T01:43:31;3.07;;;2.00;;
50585;SDS011;36542;51.700;8.846;2023-02-28T01:46:10;2.03;;;1.77;;
50585;SDS011;36542;51.700;8.846;2023-02-28T01:48:38;2.50;;;1.70;;
50585;SDS011;36542;51.700;8.846;2023-02-28T01:51:11;1.77;;;1.60;;
50585;SDS011;36542;51.700;8.846;2023-02-28T01:53:43;1.97;;;1.50;;
50585;SDS011;36542;51.700;8.846;2023-02-28T01:56:12;1.50;;;1.40;;
50585;SDS011;36542;51.700;8.846;2023-02-28T01:58:45;2.40;;;2.10;;
50585;SDS011;36542;51.700;8.846;2023-02-28T02:01:18;2.07;;;1.50;;
50585;SDS011;36542;51.700;8.846;2023-02-28T02:03:48;1.63;;;1.40;;
50585;SDS011;36542;51.700;8.846;2023-02-28T02:06:22;3.00;;;1.73;;
50585;SDS011;36542;51.700;8.846;2023-02-28T02:08:52;2.20;;;1.80;;
50585;SDS011;36542;51.700;8.846;2023-02-28T02:11:18;2.77;;;1.70;;
50585;SDS011;36542;51.700;8.846;2023-02-28T02:19:51;2.17;;;1.63;;
50585;SDS011;36542;51.700;8.846;2023-02-28T02:25:26;2.63;;;1.87;;
50585;SDS011;36542;51.700;8.846;2023-02-28T02:28:34;3.47;;;1.97;;
50585;SDS011;36542;51.700;8.846;2023-02-28T02:37:14;1.97;;;1.83;;
50585;SDS011;36542;51.700;8.846;2023-02-28T02:43:01;2.33;;;1.60;;
50585;SDS011;36542;51.700;8.846;2023-02-28T02:45:32;2.33;;;1.43;;
50585;SDS011;36542;51.700;8.846;2023-02-28T02:48:03;2.03;;;1.83;;
50585;SDS011;36542;51.700;8.846;2023-02-28T02:50:34;3.10;;;2.17;;
50585;SDS011;36542;51.700;8.846;2023-02-28T02:53:04;1.63;;;1.53;;
50585;SDS011;36542;51.700;8.846;2023-02-28T02:55:33;1.60;;;1.50;;
50585;SDS011;36542;51.700;8.846;2023-02-28T02:58:05;2.70;;;1.70;;
50585;SDS011;36542;51.700;8.846;2023-02-28T03:00:40;2.80;;;1.63;;
50585;SDS011;36542;51.700;8.846;2023-02-28T03:03:11;2.47;;;1.53;;
50585;SDS011;36542;51.700;8.846;2023-02-28T03:05:42;3.67;;;1.70;;
50585;SDS011;36542;51.700;8.846;2023-02-28T03:08:16;1.73;;;1.63;;
50585;SDS011;36542;51.700;8.846;2023-02-28T03:10:43;1.73;;;1.63;;
50585;SDS011;36542;51.700;8.846;2023-02-28T03:16:17;2.57;;;1.80;;
50585;SDS011;36542;51.700;8.846;2023-02-28T03:22:19;3.33;;;1.50;;
50585;SDS011;36542;51.700;8.846;2023-02-28T03:27:29;3.53;;;1.60;;
50585;SDS011;36542;51.700;8.846;2023-02-28T03:30:03;3.73;;;1.80;;
50585;SDS011;36542;51.700;8.846;2023-02-28T03:35:09;1.83;;;1.30;;
50585;SDS011;36542;51.700;8.846;2023-02-28T03:37:46;3.33;;;1.87;;
50585;SDS011;36542;51.700;8.846;2023-02-28T03:40:16;2.27;;;1.67;;
50585;SDS011;36542;51.700;8.846;2023-02-28T03:42:48;2.17;;;1.90;;
50585;SDS011;36542;51.700;8.846;2023-02-28T03:45:25;2.63;;;1.67;;
50585;SDS011;36542;51.700;8.846;2023-02-28T03:47:56;2.57;;;1.63;;
50585;SDS011;36542;51.700;8.846;2023-02-28T03:50:38;2.87;;;1.63;;
50585;SDS011;36542;51.700;8.846;2023-02-28T03:53:10;1.70;;;1.60;;
50585;SDS011;36542;51.700;8.846;2023-02-28T03:58:54;3.53;;;2.00;;
50585;SDS011;36542;51.700;8.846;2023-02-28T04:01:25;4.70;;;1.93;;
50585;SDS011;36542;51.700;8.846;2023-02-28T04:03:55;2.00;;;1.77;;
50585;SDS011;36542;51.700;8.846;2023-02-28T04:06:21;2.53;;;1.90;;
50585;SDS011;36542;51.700;8.846;2023-02-28T04:08:48;1.90;;;1.80;;
50585;SDS011;36542;51.700;8.846;2023-02-28T04:11:18;2.97;;;2.00;;
50585;SDS011;36542;51.700;8.846;2023-02-28T04:13:52;1.70;;;1.60;;
50585;SDS011;36542;51.700;8.846;2023-02-28T04:16:17;1.87;;;1.77;;
50585;SDS011;36542;51.700;8.846;2023-02-28T04:18:43;3.20;;;1.70;;
50585;SDS011;36542;51.700;8.846;2023-02-28T04:21:09;2.70;;;1.93;;
50585;SDS011;36542;51.700;8.846;2023-02-28T04:23:35;2.90;;;2.17;;
50585;SDS011;36542;51.700;8.846;2023-02-28T04:26:01;2.73;;;2.40;;
50585;SDS011;36542;51.700;8.846;2023-02-28T04:28:26;1.97;;;1.80;;
50585;SDS011;36542;51.700;8.846;2023-02-28T04:31:02;3.50;;;1.73;;
50585;SDS011;36542;51.700;8.846;2023-02-28T04:33:29;2.10;;;1.90;;
50585;SDS011;36542;51.700;8.846;2023-02-28T04:36:04;1.80;;;1.70;;
50585;SDS011;36542;51.700;8.846;2023-02-28T04:38:32;2.07;;;1.87;;
50585;SDS011;36542;51.700;8.846;2023-02-28T04:40:59;2.07;;;1.80;;
50585;SDS011;36542;51.700;8.846;2023-02-28T04:43:26;2.70;;;1.60;;
50585;SDS011;36542;51.700;8.846;2023-02-28T04:45:53;3.27;;;1.70;;
50585;SDS011;36542;51.700;8.846;2023-02-28T04:48:21;3.70;;;2.10;;
50585;SDS011;36542;51.700;8.846;2023-02-28T04:50:50;2.77;;;1.77;;
50585;SDS011;36542;51.700;8.846;2023-02-28T04:53:16;2.30;;;1.80;;
50585;SDS011;36542;51.700;8.846;2023-02-28T04:55:42;2.70;;;1.97;;
50585;SDS011;36542;51.700;8.846;2023-02-28T04:58:08;1.77;;;1.67;;
50585;SDS011;36542;51.700;8.846;2023-02-28T05:00:34;1.90;;;1.80;;
50585;SDS011;36542;51.700;8.846;2023-02-28T05:02:59;2.10;;;1.67;;
50585;SDS011;36542;51.700;8.846;2023-02-28T05:05:25;4.00;;;1.93;;
50585;SDS011;36542;51.700;8.846;2023-02-28T05:07:50;2.20;;;1.70;;
50585;SDS011;36542;51.700;8.846;2023-02-28T05:10:16;2.67;;;1.90;;
50585;SDS011;36542;51.700;8.846;2023-02-28T05:12:42;2.40;;;2.10;;
50585;SDS011;36542;51.700;8.846;2023-02-28T05:15:08;3.13;;;2.10;;
50585;SDS011;36542;51.700;8.846;2023-02-28T05:17:37;3.33;;;1.90;;
50585;SDS011;36542;51.700;8.846;2023-02-28T05:20:03;2.90;;;1.90;;
50585;SDS011;36542;51.700;8.846;2023-02-28T05:22:30;2.80;;;2.20;;
50585;SDS011;36542;51.700;8.846;2023-02-28T05:24:55;2.13;;;2.03;;
50585;SDS011;36542;51.700;8.846;2023-02-28T05:27:23;2.67;;;2.20;;
50585;SDS011;36542;51.700;8.846;2023-02-28T05:29:49;2.77;;;1.90;;
50585;SDS011;36542;51.700;8.846;2023-02-28T05:32:15;2.07;;;1.87;;
50585;SDS011;36542;51.700;8.846;2023-02-28T05:34:40;2.40;;;2.20;;
50585;SDS011;36542;51.700;8.846;2023-02-28T05:37:08;2.07;;;1.90;;
50585;SDS011;36542;51.700;8.846;2023-02-28T05:39:37;3.10;;;2.80;;
50585;SDS011;36542;51.700;8.846;2023-02-28T05:42:03;2.80;;;2.50;;
50585;SDS011;36542;51.700;8.846;2023-02-28T05:44:29;3.00;;;2.37;;
50585;SDS011;36542;51.700;8.846;2023-02-28T05:46:55;2.83;;;2.40;;
50585;SDS011;36542;51.700;8.846;2023-02-28T05:49:20;3.57;;;2.87;;
50585;SDS011;36542;51.700;8.846;2023-02-28T05:51:46;3.87;;;2.80;;
50585;SDS011;36542;51.700;8.846;2023-02-28T05:54:11;3.40;;;2.60;;
50585;SDS011;36542;51.700;8.846;2023-02-28T05:56:37;3.43;;;2.40;;
50585;SDS011;36542;51.700;8.846;2023-02-28T05:59:08;5.10;;;2.50;;
50585;SDS011;36542;51.700;8.846;2023-02-28T06:01:41;3.10;;;1.90;;
50585;SDS011;36542;51.700;8.846;2023-02-28T06:04:13;1.90;;;1.80;;
50585;SDS011;36542;51.700;8.846;2023-02-28T06:06:43;3.10;;;2.30;;
50585;SDS011;36542;51.700;8.846;2023-02-28T06:09:09;2.20;;;2.00;;
50585;SDS011;36542;51.700;8.846;2023-02-28T06:11:35;3.43;;;2.40;;
50585;SDS011;36542;51.700;8.846;2023-02-28T06:14:01;2.30;;;2.00;;
50585;SDS011;36542;51.700;8.846;2023-02-28T06:16:28;3.10;;;1.90;;
50585;SDS011;36542;51.700;8.846;2023-02-28T06:18:54;2.73;;;1.90;;
50585;SDS011;36542;51.700;8.846;2023-02-28T06:21:22;2.13;;;1.90;;
50585;SDS011;36542;51.700;8.846;2023-02-28T06:23:48;3.07;;;2.27;;
50585;SDS011;36542;51.700;8.846;2023-02-28T06:26:14;3.97;;;2.50;;
50585;SDS011;36542;51.700;8.846;2023-02-28T06:28:39;3.20;;;2.90;;
50585;SDS011;36542;51.700;8.846;2023-02-28T06:31:06;6.27;;;2.77;;
50585;SDS011;36542;51.700;8.846;2023-02-28T06:33:37;2.80;;;2.43;;
50585;SDS011;36542;51.700;8.846;2023-02-28T06:36:04;2.87;;;2.47;;
50585;SDS011;36542;51.700;8.846;2023-02-28T06:38:30;1.90;;;1.80;;
50585;SDS011;36542;51.700;8.846;2023-02-28T06:40:57;6.33;;;2.70;;
50585;SDS011;36542;51.700;8.846;2023-02-28T06:43:28;2.10;;;1.80;;
50585;SDS011;36542;51.700;8.846;2023-02-28T06:45:56;2.83;;;1.97;;
50585;SDS011;36542;51.700;8.846;2023-02-28T06:48:24;2.17;;;1.97;;
50585;SDS011;36542;51.700;8.846;2023-02-28T06:50:50;1.90;;;1.80;;
50585;SDS011;36542;51.700;8.846;2023-02-28T06:53:16;1.80;;;1.70;;
50585;SDS011;36542;51.700;8.846;2023-02-28T06:55:41;2.10;;;1.90;;
50585;SDS011;36542;51.700;8.846;2023-02-28T06:58:07;4.00;;;2.10;;
50585;SDS011;36542;51.700;8.846;2023-02-28T07:00:40;4.00;;;2.33;;
50585;SDS011;36542;51.700;8.846;2023-02-28T07:03:07;5.60;;;2.90;;
50585;SDS011;36542;51.700;8.846;2023-02-28T07:05:34;3.70;;;2.50;;
50585;SDS011;36542;51.700;8.846;2023-02-28T07:08:00;3.73;;;2.33;;
50585;SDS011;36542;51.700;8.846;2023-02-28T07:10:26;4.27;;;2.30;;
50585;SDS011;36542;51.700;8.846;2023-02-28T07:12:51;3.30;;;2.10;;
50585;SDS011;36542;51.700;8.846;2023-02-28T07:15:17;2.77;;;1.90;;
50585;SDS011;36542;51.700;8.846;2023-02-28T07:17:42;5.33;;;2.10;;
50585;SDS011;36542;51.700;8.846;2023-02-28T07:20:08;2.80;;;2.00;;
50585;SDS011;36542;51.700;8.846;2023-02-28T07:22:34;2.27;;;2.03;;
50585;SDS011;36542;51.700;8.846;2023-02-28T07:24:59;4.70;;;2.13;;
50585;SDS011;36542;51.700;8.846;2023-02-28T07:27:25;3.33;;;2.00;;
50585;SDS011;36542;51.700;8.846;2023-02-28T07:29:51;3.23;;;2.00;;
50585;SDS011;36542;51.700;8.846;2023-02-28T07:32:17;2.50;;;2.27;;
50585;SDS011;36542;51.700;8.846;2023-02-28T07:34:43;4.30;;;2.70;;
50585;SDS011;36542;51.700;8.846;2023-02-28T07:37:09;2.83;;;1.83;;
50585;SDS011;36542;51.700;8.846;2023-02-28T07:39:35;6.30;;;2.50;;
50585;SDS011;36542;51.700;8.846;2023-02-28T07:42:03;3.67;;;2.20;;
50585;SDS011;36542;51.700;8.846;2023-02-28T07:44:29;2.70;;;1.90;;
50585;SDS011;36542;51.700;8.846;2023-02-28T07:46:55;3.20;;;2.30;;
50585;SDS011;36542;51.700;8.846;2023-02-28T07:49:20;2.40;;;2.10;;
50585;SDS011;36542;51.700;8.846;2023-02-28T07:51:46;3.00;;;2.30;;
50585;SDS011;36542;51.700;8.846;2023-02-28T07:54:12;6.20;;;3.27;;
50585;SDS011;36542;51.700;8.846;2023-02-28T07:56:37;4.83;;;3.23;;
50585;SDS011;36542;51.700;8.846;2023-02-28T07:59:02;4.00;;;3.07;;
50585;SDS011;36542;51.700;8.846;2023-02-28T08:01:28;3.53;;;2.47;;
50585;SDS011;36542;51.700;8.846;2023-02-28T08:03:53;4.17;;;2.73;;
50585;SDS011;36542;51.700;8.846;2023-02-28T08:06:21;3.30;;;2.07;;
50585;SDS011;36542;51.700;8.846;2023-02-28T08:08:47;2.10;;;2.00;;
50585;SDS011;36542;51.700;8.846;2023-02-28T08:11:13;2.23;;;2.03;;
50585;SDS011;36542;51.700;8.846;2023-02-28T08:13:39;6.87;;;3.23;;
50585;SDS011;36542;51.700;8.846;2023-02-28T08:16:05;7.23;;;3.03;;
50585;SDS011;36542;51.700;8.846;2023-02-28T08:18:31;5.63;;;2.93;;
50585;SDS011;36542;51.700;8.846;2023-02-28T08:20:57;4.30;;;2.77;;
50585;SDS011;36542;51.700;8.846;2023-02-28T08:23:24;3.17;;;2.83;;
50585;SDS011;36542;51.700;8.846;2023-02-28T08:25:53;3.00;;;2.57;;
50585;SDS011;36542;51.700;8.846;2023-02-28T08:28:21;3.57;;;2.63;;
50585;SDS011;36542;51.700;8.846;2023-02-28T08:30:47;5.17;;;2.90;;
50585;SDS011;36542;51.700;8.846;2023-02-28T08:33:13;9.67;;;2.47;;
50585;SDS011;36542;51.700;8.846;2023-02-28T08:35:39;4.47;;;2.50;;
50585;SDS011;36542;51.700;8.846;2023-02-28T08:38:04;5.43;;;2.63;;
50585;SDS011;36542;51.700;8.846;2023-02-28T08:40:30;4.00;;;2.77;;
50585;SDS011;36542;51.700;8.846;2023-02-28T08:42:55;3.83;;;2.30;;
50585;SDS011;36542;51.700;8.846;2023-02-28T08:45:21;4.03;;;2.50;;
50585;SDS011;36542;51.700;8.846;2023-02-28T08:47:46;3.40;;;2.20;;
50585;SDS011;36542;51.700;8.846;2023-02-28T08:50:12;2.43;;;2.20;;
50585;SDS011;36542;51.700;8.846;2023-02-28T08:52:41;2.13;;;1.93;;
50585;SDS011;36542;51.700;8.846;2023-02-28T08:55:08;2.80;;;2.10;;
50585;SDS011;36542;51.700;8.846;2023-02-28T08:57:34;2.93;;;1.80;;
50585;SDS011;36542;51.700;8.846;2023-02-28T09:00:00;2.47;;;1.97;;
50585;SDS011;36542;51.700;8.846;2023-02-28T09:02:29;2.40;;;2.20;;
50585;SDS011;36542;51.700;8.846;2023-02-28T09:04:55;3.07;;;2.07;;
50585;SDS011;36542;51.700;8.846;2023-02-28T09:07:20;4.83;;;2.93;;
50585;SDS011;36542;51.700;8.846;2023-02-28T09:09:46;3.50;;;2.70;;
50585;SDS011;36542;51.700;8.846;2023-02-28T09:12:24;4.20;;;2.33;;
50585;SDS011;36542;51.700;8.846;2023-02-28T09:14:50;3.90;;;2.40;;
50585;SDS011;36542;51.700;8.846;2023-02-28T09:17:16;2.37;;;2.17;;
50585;SDS011;36542;51.700;8.846;2023-02-28T09:19:42;3.40;;;2.40;;
50585;SDS011;36542;51.700;8.846;2023-02-28T09:22:08;3.00;;;2.00;;
50585;SDS011;36542;51.700;8.846;2023-02-28T09:24:36;6.60;;;2.47;;
50585;SDS011;36542;51.700;8.846;2023-02-28T09:27:02;2.93;;;2.50;;
50585;SDS011;36542;51.700;8.846;2023-02-28T09:29:28;3.57;;;2.10;;
50585;SDS011;36542;51.700;8.846;2023-02-28T09:31:53;3.27;;;2.30;;
50585;SDS011;36542;51.700;8.846;2023-02-28T09:34:19;2.87;;;2.30;;
50585;SDS011;36542;51.700;8.846;2023-02-28T09:36:44;2.83;;;2.30;;
50585;SDS011;36542;51.700;8.846;2023-02-28T09:39:10;3.43;;;2.77;;
50585;SDS011;36542;51.700;8.846;2023-02-28T09:41:38;4.33;;;3.00;;
50585;SDS011;36542;51.700;8.846;2023-02-28T09:44:48;3.83;;;2.50;;
50585;SDS011;36542;51.700;8.846;2023-02-28T09:47:13;4.70;;;3.07;;
50585;SDS011;36542;51.700;8.846;2023-02-28T09:49:55;3.17;;;2.43;;
50585;SDS011;36542;51.700;8.846;2023-02-28T09:52:27;3.13;;;2.50;;
50585;SDS011;36542;51.700;8.846;2023-02-28T09:54:55;3.97;;;2.77;;
50585;SDS011;36542;51.700;8.846;2023-02-28T10:00:03;2.93;;;2.67;;
50585;SDS011;36542;51.700;8.846;2023-02-28T10:05:13;5.37;;;3.03;;
50585;SDS011;36542;51.700;8.846;2023-02-28T10:10:28;3.50;;;2.60;;
50585;SDS011;36542;51.700;8.846;2023-02-28T10:13:02;3.43;;;2.60;;
50585;SDS011;36542;51.700;8.846;2023-02-28T10:15:31;3.67;;;3.03;;
50585;SDS011;36542;51.700;8.846;2023-02-28T10:18:00;5.70;;;2.87;;
50585;SDS011;36542;51.700;8.846;2023-02-28T10:20:30;4.63;;;2.67;;
50585;SDS011;36542;51.700;8.846;2023-02-28T10:25:44;8.20;;;5.10;;
50585;SDS011;36542;51.700;8.846;2023-02-28T10:28:15;5.93;;;3.80;;
50585;SDS011;36542;51.700;8.846;2023-02-28T10:30:47;3.43;;;2.70;;
50585;SDS011;36542;51.700;8.846;2023-02-28T10:33:22;4.33;;;3.50;;
50585;SDS011;36542;51.700;8.846;2023-02-28T10:35:50;4.20;;;3.17;;
50585;SDS011;36542;51.700;8.846;2023-02-28T10:38:49;4.03;;;3.30;;
50585;SDS011;36542;51.700;8.846;2023-02-28T10:43:42;4.33;;;2.80;;
50585;SDS011;36542;51.700;8.846;2023-02-28T10:48:43;5.83;;;3.40;;
50585;SDS011;36542;51.700;8.846;2023-02-28T10:51:24;4.23;;;2.97;;
50585;SDS011;36542;51.700;8.846;2023-02-28T10:53:51;4.77;;;3.20;;
50585;SDS011;36542;51.700;8.846;2023-02-28T10:56:19;3.00;;;2.53;;
50585;SDS011;36542;51.700;8.846;2023-02-28T10:58:50;4.97;;;3.27;;
50585;SDS011;36542;51.700;8.846;2023-02-28T11:01:35;4.33;;;3.20;;
50585;SDS011;36542;51.700;8.846;2023-02-28T11:07:02;5.53;;;3.30;;
50585;SDS011;36542;51.700;8.846;2023-02-28T11:09:41;3.87;;;3.40;;
50585;SDS011;36542;51.700;8.846;2023-02-28T11:12:20;6.97;;;3.63;;
50585;SDS011;36542;51.700;8.846;2023-02-28T11:15:19;3.70;;;2.63;;
50585;SDS011;36542;51.700;8.846;2023-02-28T11:17:58;4.47;;;3.43;;
50585;SDS011;36542;51.700;8.846;2023-02-28T11:20:27;6.63;;;3.77;;
50585;SDS011;36542;51.700;8.846;2023-02-28T11:22:55;4.73;;;3.00;;
50585;SDS011;36542;51.700;8.846;2023-02-28T11:25:24;6.73;;;2.77;;
50585;SDS011;36542;51.700;8.846;2023-02-28T11:27:54;3.53;;;3.00;;
50585;SDS011;36542;51.700;8.846;2023-02-28T11:30:23;4.03;;;3.67;;
50585;SDS011;36542;51.700;8.846;2023-02-28T11:32:49;3.73;;;2.53;;
50585;SDS011;36542;51.700;8.846;2023-02-28T11:35:34;3.27;;;2.83;;
50585;SDS011;36542;51.700;8.846;2023-02-28T11:38:04;2.77;;;2.57;;
50585;SDS011;36542;51.700;8.846;2023-02-28T11:43:56;3.53;;;2.40;;
50585;SDS011;36542;51.700;8.846;2023-02-28T11:46:32;4.43;;;2.70;;
50585;SDS011;36542;51.700;8.846;2023-02-28T11:51:53;4.77;;;3.67;;
50585;SDS011;36542;51.700;8.846;2023-02-28T12:11:56;5.03;;;3.70;;
50585;SDS011;36542;51.700;8.846;2023-02-28T12:20:18;4.07;;;2.97;;
50585;SDS011;36542;51.700;8.846;2023-02-28T12:22:53;4.87;;;3.23;;
50585;SDS011;36542;51.700;8.846;2023-02-28T12:28:12;4.03;;;3.23;;
50585;SDS011;36542;51.700;8.846;2023-02-28T12:30:51;3.97;;;3.47;;
50585;SDS011;36542;51.700;8.846;2023-02-28T12:33:26;3.90;;;3.00;;
50585;SDS011;36542;51.700;8.846;2023-02-28T12:35:59;4.13;;;3.23;;
50585;SDS011;36542;51.700;8.846;2023-02-28T12:38:38;4.07;;;3.13;;
50585;SDS011;36542;51.700;8.846;2023-02-28T12:41:18;4.17;;;2.93;;
50585;SDS011;36542;51.700;8.846;2023-02-28T12:43:48;5.50;;;3.00;;
50585;SDS011;36542;51.700;8.846;2023-02-28T12:46:34;4.63;;;3.00;;
50585;SDS011;36542;51.700;8.846;2023-02-28T12:49:15;3.87;;;2.83;;
50585;SDS011;36542;51.700;8.846;2023-02-28T12:51:49;4.50;;;2.70;;
50585;SDS011;36542;51.700;8.846;2023-02-28T12:57:02;4.60;;;2.93;;
50585;SDS011;36542;51.700;8.846;2023-02-28T13:10:16;3.50;;;3.20;;
50585;SDS011;36542;51.700;8.846;2023-02-28T13:12:47;3.67;;;2.97;;
50585;SDS011;36542;51.700;8.846;2023-02-28T13:15:22;3.47;;;2.83;;
50585;SDS011;36542;51.700;8.846;2023-02-28T13:17:51;3.90;;;3.50;;
50585;SDS011;36542;51.700;8.846;2023-02-28T13:20:23;4.27;;;3.40;;
50585;SDS011;36542;51.700;8.846;2023-02-28T13:22:59;3.60;;;3.20;;
50585;SDS011;36542;51.700;8.846;2023-02-28T13:28:10;3.83;;;3.23;;
50585;SDS011;36542;51.700;8.846;2023-02-28T13:33:19;3.80;;;3.40;;
50585;SDS011;36542;51.700;8.846;2023-02-28T13:52:32;6.27;;;3.80;;
50585;SDS011;36542;51.700;8.846;2023-02-28T14:00:35;4.37;;;3.97;;
50585;SDS011;36542;51.700;8.846;2023-02-28T14:03:31;4.47;;;3.20;;
50585;SDS011;36542;51.700;8.846;2023-02-28T14:09:02;3.87;;;3.47;;
50585;SDS011;36542;51.700;8.846;2023-02-28T14:11:43;4.53;;;3.60;;
50585;SDS011;36542;51.700;8.846;2023-02-28T14:14:53;5.73;;;3.60;;
50585;SDS011;36542;51.700;8.846;2023-02-28T14:17:08;4.67;;;3.20;;
50585;SDS011;36542;51.700;8.846;2023-02-28T14:19:39;4.37;;;3.73;;
50585;SDS011;36542;51.700;8.846;2023-02-28T14:22:22;6.50;;;3.60;;
50585;SDS011;36542;51.700;8.846;2023-02-28T14:25:30;5.27;;;4.07;;
50585;SDS011;36542;51.700;8.846;2023-02-28T14:36:32;4.93;;;4.00;;
50585;SDS011;36542;51.700;8.846;2023-02-28T14:39:07;4.63;;;3.33;;
50585;SDS011;36542;51.700;8.846;2023-02-28T14:41:37;4.10;;;3.17;;
50585;SDS011;36542;51.700;8.846;2023-02-28T14:46:48;4.80;;;3.50;;
50585;SDS011;36542;51.700;8.846;2023-02-28T14:49:17;3.80;;;3.27;;
50585;SDS011;36542;51.700;8.846;2023-02-28T14:51:50;6.07;;;3.30;;
50585;SDS011;36542;51.700;8.846;2023-02-28T14:54:26;6.00;;;3.90;;
50585;SDS011;36542;51.700;8.846;2023-02-28T14:56:51;4.00;;;3.57;;
50585;SDS011;36542;51.700;8.846;2023-02-28T15:01:49;5.33;;;3.70;;
50585;SDS011;36542;51.700;8.846;2023-02-28T15:04:18;3.70;;;3.20;;
50585;SDS011;36542;51.700;8.846;2023-02-28T15:07:09;3.40;;;3.10;;
50585;SDS011;36542;51.700;8.846;2023-02-28T15:09:36;6.13;;;3.20;;
50585;SDS011;36542;51.700;8.846;2023-02-28T15:12:01;4.00;;;3.03;;
50585;SDS011;36542;51.700;8.846;2023-02-28T15:14:27;4.37;;;3.67;;
50585;SDS011;36542;51.700;8.846;2023-02-28T15:17:01;4.50;;;2.83;;
50585;SDS011;36542;51.700;8.846;2023-02-28T15:19:32;4.50;;;3.60;;
50585;SDS011;36542;51.700;8.846;2023-02-28T15:22:06;4.03;;;3.27;;
50585;SDS011;36542;51.700;8.846;2023-02-28T15:24:42;3.17;;;2.83;;
50585;SDS011;36542;51.700;8.846;2023-02-28T15:27:12;3.73;;;3.30;;
50585;SDS011;36542;51.700;8.846;2023-02-28T15:29:46;4.53;;;3.47;;
50585;SDS011;36542;51.700;8.846;2023-02-28T15:32:37;5.97;;;3.60;;
50585;SDS011;36542;51.700;8.846;2023-02-28T15:35:18;4.10;;;3.27;;
50585;SDS011;36542;51.700;8.846;2023-02-28T15:37:56;3.93;;;3.23;;
50585;SDS011;36542;51.700;8.846;2023-02-28T15:40:29;3.87;;;3.07;;
50585;SDS011;36542;51.700;8.846;2023-02-28T15:43:04;7.63;;;3.93;;
50585;SDS011;36542;51.700;8.846;2023-02-28T15:45:34;4.60;;;3.70;;
50585;SDS011;36542;51.700;8.846;2023-02-28T15:48:03;4.60;;;3.43;;
50585;SDS011;36542;51.700;8.846;2023-02-28T15:50:30;4.53;;;3.20;;
50585;SDS011;36542;51.700;8.846;2023-02-28T15:52:55;4.20;;;3.27;;
50585;SDS011;36542;51.700;8.846;2023-02-28T15:55:22;5.13;;;3.10;;
50585;SDS011;36542;51.700;8.846;2023-02-28T15:57:53;7.40;;;3.10;;
50585;SDS011;36542;51.700;8.846;2023-02-28T16:00:23;4.37;;;3.20;;
50585;SDS011;36542;51.700;8.846;2023-02-28T16:02:50;4.37;;;3.47;;
50585;SDS011;36542;51.700;8.846;2023-02-28T16:05:19;4.33;;;3.40;;
50585;SDS011;36542;51.700;8.846;2023-02-28T16:07:53;5.20;;;3.10;;
50585;SDS011;36542;51.700;8.846;2023-02-28T16:10:20;5.17;;;3.40;;
50585;SDS011;36542;51.700;8.846;2023-02-28T16:12:49;3.73;;;3.17;;
50585;SDS011;36542;51.700;8.846;2023-02-28T16:15:17;4.23;;;3.03;;
50585;SDS011;36542;51.700;8.846;2023-02-28T16:17:45;4.67;;;3.70;;
50585;SDS011;36542;51.700;8.846;2023-02-28T16:20:15;3.63;;;3.17;;
50585;SDS011;36542;51.700;8.846;2023-02-28T16:22:43;4.07;;;3.50;;
50585;SDS011;36542;51.700;8.846;2023-02-28T16:25:15;4.33;;;3.60;;
50585;SDS011;36542;51.700;8.846;2023-02-28T16:27:42;5.57;;;3.63;;
50585;SDS011;36542;51.700;8.846;2023-02-28T16:30:16;4.07;;;3.43;;
50585;SDS011;36542;51.700;8.846;2023-02-28T16:32:47;5.03;;;3.57;;
50585;SDS011;36542;51.700;8.846;2023-02-28T16:35:14;4.93;;;3.57;;
50585;SDS011;36542;51.700;8.846;2023-02-28T16:37:40;4.67;;;4.20;;
50585;SDS011;36542;51.700;8.846;2023-02-28T16:40:06;4.30;;;3.43;;
50585;SDS011;36542;51.700;8.846;2023-02-28T16:42:39;4.07;;;3.67;;
50585;SDS011;36542;51.700;8.846;2023-02-28T16:45:05;5.90;;;3.87;;
50585;SDS011;36542;51.700;8.846;2023-02-28T16:47:35;5.90;;;4.10;;
50585;SDS011;36542;51.700;8.846;2023-02-28T16:50:01;4.50;;;4.03;;
50585;SDS011;36542;51.700;8.846;2023-02-28T16:52:27;9.07;;;4.60;;
50585;SDS011;36542;51.700;8.846;2023-02-28T16:54:52;5.43;;;4.43;;
50585;SDS011;36542;51.700;8.846;2023-02-28T16:57:22;4.30;;;3.87;;
50585;SDS011;36542;51.700;8.846;2023-02-28T16:59:48;4.93;;;4.43;;
50585;SDS011;36542;51.700;8.846;2023-02-28T17:02:16;6.80;;;4.60;;
50585;SDS011;36542;51.700;8.846;2023-02-28T17:04:44;5.03;;;3.70;;
50585;SDS011;36542;51.700;8.846;2023-02-28T17:07:14;8.17;;;5.10;;
50585;SDS011;36542;51.700;8.846;2023-02-28T17:09:41;5.30;;;4.80;;
50585;SDS011;36542;51.700;8.846;2023-02-28T17:12:08;7.27;;;5.00;;
50585;SDS011;36542;51.700;8.846;2023-02-28T17:14:35;6.87;;;5.27;;
50585;SDS011;36542;51.700;8.846;2023-02-28T17:17:00;9.20;;;4.67;;
50585;SDS011;36542;51.700;8.846;2023-02-28T17:19:26;6.80;;;4.83;;
50585;SDS011;36542;51.700;8.846;2023-02-28T17:21:52;10.57;;;4.90;;
50585;SDS011;36542;51.700;8.846;2023-02-28T17:24:18;7.10;;;4.93;;